Terminal Aerodrome Forecast
Issued by NWS

Home | Current Version | Previous Version | Text Only | Print | Product List | Glossary On
Versions: 1 2 3 4 5 6 7 8 9 10 11 12 13 14
000
FTUS44 KTSA 231722
TAFRVS
TAF
KRVS 231722Z 2318/2418 36010KT P6SM VCSH BKN050
      TEMPO 2318/2320 BKN025
     FM232100 34010G17KT P6SM SCT050
     FM240000 34004KT P6SM SCT050
     FM241500 32007KT P6SM BKN025=

USA.gov is the U.S. government's official web portal to all federal, state and local government web resources and services.